createdAt,value
2022-12-18T00:02:13.400Z,16.67
2022-12-18T00:04:39.869Z,16.58
2022-12-18T00:07:06.273Z,17.00
2022-12-18T00:09:39.545Z,16.90
2022-12-18T00:14:42.974Z,15.85
2022-12-18T00:17:12.406Z,16.33
2022-12-18T00:19:38.740Z,17.13
2022-12-18T00:22:05.948Z,16.60
2022-12-18T00:24:32.424Z,15.63
2022-12-18T00:26:58.892Z,15.30
2022-12-18T00:29:25.297Z,16.25
2022-12-18T00:31:51.720Z,15.93
2022-12-18T00:34:18.163Z,15.65
2022-12-18T00:36:44.600Z,15.82
2022-12-18T00:39:13.133Z,16.10
2022-12-18T00:41:58.661Z,15.68
2022-12-18T00:44:25.587Z,15.63
2022-12-18T00:46:51.937Z,17.58
2022-12-18T00:49:19.947Z,15.50
2022-12-18T00:51:46.996Z,15.25
2022-12-18T00:54:13.989Z,14.63
2022-12-18T00:56:48.239Z,17.38
2022-12-18T00:59:15.076Z,14.82
2022-12-18T01:01:41.561Z,15.40
2022-12-18T01:04:08.236Z,14.88
2022-12-18T01:06:34.607Z,14.40
2022-12-18T01:09:01.811Z,16.27
2022-12-18T01:11:28.162Z,15.75
2022-12-18T01:13:55.115Z,14.95
2022-12-18T01:16:22.938Z,13.82
2022-12-18T01:18:52.966Z,16.13
2022-12-18T01:21:19.713Z,14.30
2022-12-18T01:23:46.754Z,15.02
2022-12-18T01:26:15.874Z,14.73
2022-12-18T01:28:42.810Z,14.25
2022-12-18T01:31:20.081Z,15.65
2022-12-18T01:33:48.405Z,15.57
2022-12-18T01:36:32.736Z,14.43
2022-12-18T01:39:06.418Z,13.60
2022-12-18T01:42:15.480Z,13.52
2022-12-18T01:45:14.255Z,15.00
2022-12-18T01:47:45.410Z,14.30
2022-12-18T01:50:16.749Z,14.73
2022-12-18T01:52:47.696Z,13.80
2022-12-18T01:55:17.255Z,14.70
2022-12-18T01:57:43.786Z,15.05
2022-12-18T02:00:21.011Z,13.75
2022-12-18T02:02:48.039Z,13.30
2022-12-18T02:05:34.059Z,14.40
2022-12-18T02:08:13.955Z,14.00
2022-12-18T02:11:19.355Z,13.57
2022-12-18T02:14:20.087Z,14.80
2022-12-18T02:17:26.167Z,13.60
2022-12-18T02:20:17.276Z,13.27
2022-12-18T02:22:52.317Z,12.05
2022-12-18T02:25:40.041Z,13.82
2022-12-18T02:28:12.541Z,11.85
2022-12-18T02:30:42.113Z,12.93
2022-12-18T02:33:12.851Z,12.82
2022-12-18T02:35:41.798Z,13.82
2022-12-18T02:38:08.702Z,12.05
2022-12-18T02:40:38.099Z,12.50
2022-12-18T02:43:14.013Z,11.98
2022-12-18T02:45:59.244Z,13.13
2022-12-18T02:48:34.064Z,12.60
2022-12-18T02:51:19.533Z,13.77
2022-12-18T02:53:57.136Z,12.15
2022-12-18T02:56:36.113Z,13.20
2022-12-18T02:59:14.783Z,13.35
2022-12-18T03:01:56.838Z,12.52
2022-12-18T03:04:31.553Z,12.25
2022-12-18T03:07:04.194Z,12.98
2022-12-18T03:09:44.437Z,13.05
2022-12-18T03:12:26.306Z,11.70
2022-12-18T03:15:18.055Z,11.23
2022-12-18T03:17:56.522Z,11.60
2022-12-18T03:20:27.939Z,12.40
2022-12-18T03:23:06.059Z,12.63
2022-12-18T03:25:35.959Z,12.38
2022-12-18T03:28:04.136Z,11.45
2022-12-18T03:30:33.570Z,12.27
2022-12-18T03:33:16.237Z,12.70
2022-12-18T03:35:45.575Z,13.35
2022-12-18T03:38:13.765Z,11.45
2022-12-18T03:40:51.114Z,12.95
2022-12-18T03:43:37.641Z,12.25
2022-12-18T03:46:34.650Z,12.18
2022-12-18T03:49:24.379Z,11.18
2022-12-18T03:52:05.633Z,13.52
2022-12-18T03:54:34.792Z,12.18
2022-12-18T03:57:19.196Z,12.55
2022-12-18T03:59:49.574Z,11.70
2022-12-18T04:02:18.785Z,11.88
2022-12-18T04:04:51.515Z,11.65
2022-12-18T04:07:19.195Z,10.65
2022-12-18T04:09:46.993Z,11.63
2022-12-18T04:12:14.069Z,12.05
2022-12-18T04:14:40.722Z,12.10
2022-12-18T04:17:08.862Z,10.65
2022-12-18T04:19:35.369Z,10.77
2022-12-18T04:22:02.951Z,10.90
2022-12-18T04:24:34.634Z,12.50
2022-12-18T04:27:10.635Z,11.25
2022-12-18T04:29:43.062Z,12.00
2022-12-18T04:32:10.219Z,11.75
2022-12-18T04:34:37.795Z,11.38
2022-12-18T04:37:05.166Z,10.52
2022-12-18T04:39:32.584Z,11.68
2022-12-18T04:42:04.374Z,11.90
2022-12-18T04:44:30.803Z,11.38
2022-12-18T04:46:57.143Z,12.85
2022-12-18T04:49:23.743Z,11.88
2022-12-18T04:51:50.186Z,12.07
2022-12-18T04:54:16.585Z,12.10
2022-12-18T04:56:43.060Z,11.60
2022-12-18T04:59:09.411Z,11.95
2022-12-18T05:01:35.968Z,11.68
2022-12-18T05:04:03.726Z,12.18
2022-12-18T05:06:30.324Z,11.70
2022-12-18T05:08:56.847Z,11.10
2022-12-18T05:11:23.518Z,13.45
2022-12-18T05:13:49.867Z,11.85
2022-12-18T05:16:16.308Z,13.00
2022-12-18T05:18:43.002Z,11.63
2022-12-18T05:21:09.853Z,11.55
2022-12-18T05:23:37.026Z,12.05
2022-12-18T05:26:06.313Z,11.93
2022-12-18T05:28:36.537Z,12.00
2022-12-18T05:31:05.080Z,13.15
2022-12-18T05:33:33.792Z,12.40
2022-12-18T05:36:02.277Z,11.77
2022-12-18T05:38:29.957Z,12.55
2022-12-18T05:40:57.133Z,11.90
2022-12-18T05:43:25.471Z,12.95
2022-12-18T05:45:53.548Z,12.63
2022-12-18T05:48:20.586Z,11.85
2022-12-18T05:50:48.567Z,13.00
2022-12-18T05:53:16.691Z,12.75
2022-12-18T05:55:44.703Z,12.70
2022-12-18T05:58:12.587Z,12.90
2022-12-18T06:00:40.797Z,12.77
2022-12-18T06:03:08.892Z,12.93
2022-12-18T06:05:37.719Z,12.75
2022-12-18T06:08:04.528Z,13.05
2022-12-18T06:10:31.374Z,13.48
2022-12-18T06:12:57.855Z,12.90
2022-12-18T06:15:24.222Z,13.82
2022-12-18T06:17:50.812Z,14.25
2022-12-18T06:20:17.553Z,13.93
2022-12-18T06:22:44.588Z,13.25
2022-12-18T06:25:11.270Z,13.43
2022-12-18T06:27:38.373Z,12.80
2022-12-18T06:30:05.846Z,12.93
2022-12-18T06:32:32.276Z,12.85
2022-12-18T06:34:58.669Z,12.35
2022-12-18T06:37:26.976Z,13.48
2022-12-18T06:39:54.301Z,13.95
2022-12-18T06:42:20.765Z,13.52
2022-12-18T06:44:47.104Z,13.23
2022-12-18T06:47:13.542Z,13.25
2022-12-18T06:49:39.886Z,13.75
2022-12-18T06:52:06.292Z,14.23
2022-12-18T06:54:32.760Z,13.60
2022-12-18T06:56:59.236Z,14.70
2022-12-18T06:59:25.843Z,14.18
2022-12-18T07:01:53.037Z,14.93
2022-12-18T07:04:19.486Z,14.25
2022-12-18T07:06:46.077Z,14.52
2022-12-18T07:09:12.425Z,14.88
2022-12-18T07:11:38.890Z,14.32
2022-12-18T07:14:05.695Z,15.23
2022-12-18T07:16:32.083Z,14.55
2022-12-18T07:18:58.486Z,14.63
2022-12-18T07:21:26.743Z,14.63
2022-12-18T07:23:53.434Z,13.68
2022-12-18T07:26:21.918Z,13.68
2022-12-18T07:28:49.357Z,14.32
2022-12-18T07:31:19.557Z,15.38
2022-12-18T07:33:48.842Z,14.55
2022-12-18T07:36:15.554Z,14.55
2022-12-18T07:38:42.170Z,15.73
2022-12-18T07:41:11.302Z,15.00
2022-12-18T07:43:39.291Z,14.40
2022-12-18T07:46:06.463Z,14.07
2022-12-18T07:48:33.065Z,14.30
2022-12-18T07:51:09.197Z,14.88
2022-12-18T07:53:39.164Z,14.38
2022-12-18T07:58:55.778Z,14.38
2022-12-18T08:01:22.310Z,14.73
2022-12-18T08:03:48.903Z,14.70
2022-12-18T08:06:16.738Z,15.57
2022-12-18T08:08:43.397Z,14.48
2022-12-18T08:11:09.836Z,14.80
2022-12-18T08:13:36.324Z,16.02
2022-12-18T08:16:05.611Z,15.02
2022-12-18T08:18:34.730Z,15.40
2022-12-18T08:21:12.370Z,15.80
2022-12-18T08:23:42.925Z,13.82
2022-12-18T08:26:11.168Z,15.82
2022-12-18T08:28:37.553Z,14.73
2022-12-18T08:31:04.828Z,15.50
2022-12-18T08:33:31.492Z,15.73
2022-12-18T08:36:00.129Z,14.93
2022-12-18T08:38:27.516Z,14.13
2022-12-18T08:41:01.327Z,13.07
2022-12-18T08:43:47.026Z,15.15
2022-12-18T08:46:13.859Z,14.38
2022-12-18T08:48:40.266Z,14.10
2022-12-18T08:51:06.648Z,15.30
2022-12-18T08:53:35.815Z,14.50
2022-12-18T08:56:03.050Z,13.85
2022-12-18T08:58:29.897Z,14.25
2022-12-18T09:01:02.813Z,14.70
2022-12-18T09:03:29.392Z,14.07
2022-12-18T09:05:55.854Z,14.07
2022-12-18T09:08:22.255Z,15.18
2022-12-18T09:10:50.522Z,14.02
2022-12-18T09:13:18.301Z,14.93
2022-12-18T09:15:53.203Z,14.23
2022-12-18T09:18:21.281Z,15.25
2022-12-18T09:20:47.924Z,15.57
2022-12-18T09:23:14.836Z,14.63
2022-12-18T09:25:42.582Z,13.95
2022-12-18T09:28:14.296Z,15.10
2022-12-18T09:30:45.199Z,13.35
2022-12-18T09:33:11.872Z,14.93
2022-12-18T09:35:41.465Z,14.73
2022-12-18T09:38:12.524Z,15.60
2022-12-18T09:40:52.149Z,13.73
2022-12-18T09:43:28.065Z,13.52
2022-12-18T09:46:03.292Z,14.02
2022-12-18T09:48:35.698Z,15.13
2022-12-18T09:51:10.017Z,14.40
2022-12-18T09:53:41.594Z,14.02
2022-12-18T09:56:16.798Z,14.30
2022-12-18T09:58:51.146Z,13.85
2022-12-18T10:01:23.699Z,13.32
2022-12-18T10:03:51.354Z,13.30
2022-12-18T10:06:43.726Z,14.18
2022-12-18T10:09:18.374Z,12.93
2022-12-18T10:11:55.276Z,14.88
2022-12-18T10:14:45.740Z,13.38
2022-12-18T10:17:36.734Z,12.98
2022-12-18T10:20:11.372Z,13.05
2022-12-18T10:22:46.761Z,15.25
2022-12-18T10:25:39.682Z,13.18
2022-12-18T10:28:15.533Z,12.45
2022-12-18T10:30:43.512Z,13.75
2022-12-18T10:33:16.835Z,13.13
2022-12-18T10:35:45.302Z,13.18
2022-12-18T10:38:14.591Z,13.93
2022-12-18T10:41:00.045Z,13.63
2022-12-18T10:43:37.059Z,13.05
2022-12-18T10:46:09.450Z,14.05
2022-12-18T10:48:48.140Z,13.75
2022-12-18T10:51:40.864Z,15.50
2022-12-18T10:54:15.974Z,15.05
2022-12-18T10:56:43.161Z,14.90
2022-12-18T10:59:12.961Z,13.88
2022-12-18T11:01:59.282Z,14.55
2022-12-18T11:04:28.547Z,14.07
2022-12-18T11:07:06.912Z,14.70
2022-12-18T11:09:40.790Z,13.05
2022-12-18T11:12:19.232Z,15.10
2022-12-18T11:14:51.684Z,16.15
2022-12-18T11:17:35.926Z,15.32
2022-12-18T11:20:07.909Z,14.23
2022-12-18T11:22:39.189Z,11.98
2022-12-18T11:28:04.790Z,13.88
2022-12-18T11:30:36.556Z,12.82
2022-12-18T11:33:07.785Z,14.00
2022-12-18T11:35:40.981Z,13.25
2022-12-18T11:38:19.484Z,11.75
2022-12-18T11:40:52.491Z,13.20
2022-12-18T11:43:28.656Z,13.48
2022-12-18T11:46:05.574Z,12.95
2022-12-18T11:48:39.090Z,13.30
2022-12-18T11:51:14.906Z,12.50
2022-12-18T11:53:41.321Z,12.98
2022-12-18T11:56:30.681Z,11.60
2022-12-18T11:59:26.592Z,13.52
2022-12-18T12:01:59.727Z,11.98
2022-12-18T12:04:32.857Z,13.10
2022-12-18T12:07:08.464Z,12.23
2022-12-18T12:10:02.250Z,12.95
2022-12-18T12:12:58.909Z,12.98
2022-12-18T12:15:44.959Z,12.23
2022-12-18T12:18:20.458Z,13.00
2022-12-18T12:20:55.938Z,12.23
2022-12-18T12:23:44.661Z,12.63
2022-12-18T12:26:16.716Z,12.13
2022-12-18T12:29:04.393Z,12.27
2022-12-18T12:31:52.565Z,12.68
2022-12-18T12:34:43.198Z,12.00
2022-12-18T12:37:34.155Z,14.32
2022-12-18T12:40:11.007Z,14.07
2022-12-18T12:43:15.803Z,14.90
2022-12-18T12:46:05.911Z,14.88
2022-12-18T12:48:43.317Z,13.75
2022-12-18T12:51:21.863Z,13.85
2022-12-18T12:53:49.694Z,14.90
2022-12-18T12:56:20.071Z,14.45
2022-12-18T12:59:14.186Z,13.73
2022-12-18T13:01:59.233Z,15.32
2022-12-18T13:05:02.274Z,15.18
2022-12-18T13:07:51.067Z,14.45
2022-12-18T13:10:17.849Z,13.63
2022-12-18T13:13:47.049Z,15.57
2022-12-18T13:16:08.422Z,14.18
2022-12-18T13:18:35.613Z,14.63
2022-12-18T13:21:03.838Z,15.75
2022-12-18T13:23:35.222Z,15.38
2022-12-18T13:26:09.008Z,15.13
2022-12-18T13:28:47.742Z,14.93
2022-12-18T13:34:32.223Z,15.55
2022-12-18T13:37:33.709Z,16.42
2022-12-18T13:40:00.156Z,15.10
2022-12-18T13:42:57.592Z,15.93
2022-12-18T13:45:38.087Z,14.80
2022-12-18T13:48:12.034Z,15.07
2022-12-18T13:50:39.807Z,15.30
2022-12-18T13:53:06.287Z,14.82
2022-12-18T13:55:33.154Z,15.57
2022-12-18T13:58:06.845Z,15.48
2022-12-18T14:00:34.140Z,16.42
2022-12-18T14:03:01.315Z,16.10
2022-12-18T14:05:32.553Z,16.15
2022-12-18T14:08:14.937Z,15.50
2022-12-18T14:10:48.700Z,15.43
2022-12-18T14:13:42.719Z,16.80
2022-12-18T14:16:15.116Z,16.85
2022-12-18T14:18:45.332Z,17.45
2022-12-18T14:21:20.768Z,16.27
2022-12-18T14:23:47.487Z,16.55
2022-12-18T14:26:29.828Z,18.13
2022-12-18T14:29:04.502Z,17.85
2022-12-18T14:31:32.620Z,17.63
2022-12-18T14:33:58.986Z,16.83
2022-12-18T14:36:28.267Z,18.13
2022-12-18T14:38:56.960Z,17.95
2022-12-18T14:41:25.002Z,18.27
2022-12-18T14:43:53.756Z,17.52
2022-12-18T14:46:40.500Z,17.98
2022-12-18T14:49:34.162Z,19.05
2022-12-18T14:52:06.656Z,17.63
2022-12-18T14:54:39.206Z,20.30
2022-12-18T14:57:19.209Z,18.42
2022-12-18T14:59:45.683Z,18.50
2022-12-18T15:02:22.510Z,17.60
2022-12-18T15:05:06.134Z,18.73
2022-12-18T15:07:47.913Z,21.23
2022-12-18T15:10:17.715Z,18.90
2022-12-18T15:12:46.518Z,18.42
2022-12-18T15:15:35.227Z,19.52
2022-12-18T15:18:09.524Z,19.92
2022-12-18T15:20:42.993Z,19.13
2022-12-18T15:23:22.689Z,20.73
2022-12-18T15:26:06.078Z,19.90
2022-12-18T15:28:37.841Z,19.20
2022-12-18T15:31:32.991Z,18.98
2022-12-18T15:34:00.371Z,19.63
2022-12-18T15:36:29.018Z,18.70
2022-12-18T15:39:04.049Z,20.58
2022-12-18T15:41:34.854Z,19.40
2022-12-18T15:44:03.597Z,18.15
2022-12-18T15:46:31.628Z,17.98
2022-12-18T15:49:02.115Z,18.58
2022-12-18T15:51:39.457Z,18.95
2022-12-18T15:54:10.675Z,17.73
2022-12-18T15:56:56.060Z,19.08
2022-12-18T15:59:24.069Z,19.33
2022-12-18T16:01:53.821Z,18.20
2022-12-18T16:04:22.285Z,21.65
2022-12-18T16:09:36.486Z,22.33
2022-12-18T16:12:03.144Z,21.33
2022-12-18T16:14:30.788Z,21.60
2022-12-18T16:17:02.815Z,19.27
2022-12-18T16:19:30.309Z,20.25
2022-12-18T16:21:58.517Z,20.00
2022-12-18T16:24:27.883Z,20.33
2022-12-18T16:26:55.270Z,19.38
2022-12-18T16:29:28.541Z,18.33
2022-12-18T16:31:55.969Z,20.45
2022-12-18T16:34:29.266Z,20.27
2022-12-18T16:37:03.297Z,21.00
2022-12-18T16:39:32.886Z,19.20
2022-12-18T16:42:00.042Z,20.33
2022-12-18T16:44:28.734Z,21.27
2022-12-18T16:46:55.427Z,21.70
2022-12-18T16:49:24.638Z,20.08
2022-12-18T16:51:51.128Z,19.83
2022-12-18T16:54:19.616Z,18.65
2022-12-18T16:56:49.695Z,20.35
2022-12-18T16:59:16.370Z,20.65
2022-12-18T17:01:42.962Z,19.27
2022-12-18T17:04:09.653Z,19.25
2022-12-18T17:06:40.815Z,19.25
2022-12-18T17:09:09.470Z,20.05
2022-12-18T17:11:36.459Z,20.55
2022-12-18T17:14:07.967Z,19.67
2022-12-18T17:16:34.489Z,19.23
2022-12-18T17:19:01.926Z,20.10
2022-12-18T17:21:29.009Z,20.45
2022-12-18T17:23:55.385Z,22.05
2022-12-18T17:26:21.890Z,18.75
2022-12-18T17:28:48.227Z,18.65
2022-12-18T17:31:19.684Z,16.00
2022-12-18T17:33:46.732Z,19.23
2022-12-18T17:36:13.907Z,17.52
2022-12-18T17:38:43.423Z,18.83
2022-12-18T17:41:11.535Z,18.67
2022-12-18T17:43:47.802Z,17.80
2022-12-18T17:46:14.989Z,17.80
2022-12-18T17:48:41.748Z,16.88
2022-12-18T17:51:09.866Z,15.90
2022-12-18T17:53:39.550Z,16.65
2022-12-18T17:56:08.477Z,15.88
2022-12-18T17:58:37.371Z,15.43
2022-12-18T18:01:06.630Z,16.20
2022-12-18T18:03:34.276Z,15.68
2022-12-18T18:06:02.405Z,15.93
2022-12-18T18:08:29.451Z,15.57
2022-12-18T18:11:15.888Z,15.75
2022-12-18T18:14:00.686Z,15.27
2022-12-18T18:16:37.751Z,14.13
2022-12-18T18:19:08.249Z,15.30
2022-12-18T18:21:38.000Z,15.40
2022-12-18T18:24:05.353Z,14.20
2022-12-18T18:26:33.488Z,14.82
2022-12-18T18:29:02.474Z,15.02
2022-12-18T18:31:31.885Z,15.23
2022-12-18T18:33:58.542Z,13.57
2022-12-18T18:36:25.519Z,15.07
2022-12-18T18:38:52.054Z,13.20
2022-12-18T18:41:19.254Z,13.95
2022-12-18T18:43:46.057Z,14.13
2022-12-18T18:46:14.627Z,14.57
2022-12-18T18:48:41.772Z,13.68
2022-12-18T18:51:15.310Z,12.82
2022-12-18T18:53:49.690Z,13.35
2022-12-18T18:56:56.465Z,13.75
2022-12-18T18:59:04.723Z,13.05
2022-12-18T19:01:31.606Z,13.35
2022-12-18T19:03:58.175Z,13.10
2022-12-18T19:06:27.220Z,12.68
2022-12-18T19:08:56.030Z,13.82
2022-12-18T19:11:42.019Z,13.63
2022-12-18T19:14:10.336Z,12.70
2022-12-18T19:16:37.649Z,12.93
2022-12-18T19:19:04.774Z,13.30
2022-12-18T19:21:34.117Z,13.32
2022-12-18T19:24:02.731Z,14.68
2022-12-18T19:26:30.213Z,13.55
2022-12-18T19:29:08.329Z,12.95
2022-12-18T19:31:36.927Z,12.88
2022-12-18T19:34:07.947Z,12.38
2022-12-18T19:36:37.486Z,13.18
2022-12-18T19:39:10.305Z,13.73
2022-12-18T19:41:37.116Z,14.52
2022-12-18T19:44:07.388Z,12.55
2022-12-18T19:46:35.817Z,13.90
2022-12-18T19:49:02.756Z,13.40
2022-12-18T19:51:31.387Z,14.40
2022-12-18T19:54:00.529Z,13.98
2022-12-18T19:56:35.168Z,15.32
2022-12-18T19:59:03.526Z,13.80
2022-12-18T20:01:34.272Z,14.70
2022-12-18T20:04:03.954Z,14.85
2022-12-18T20:06:49.764Z,14.45
2022-12-18T20:09:16.547Z,15.45
2022-12-18T20:11:43.255Z,15.50
2022-12-18T20:14:14.426Z,15.00
2022-12-18T20:16:43.544Z,15.05
2022-12-18T20:19:12.014Z,15.35
2022-12-18T20:21:38.894Z,14.82
2022-12-18T20:24:06.903Z,15.77
2022-12-18T20:26:33.338Z,14.95
2022-12-18T20:28:59.858Z,15.13
2022-12-18T20:31:26.338Z,14.70
2022-12-18T20:33:53.371Z,15.25
2022-12-18T20:36:25.824Z,16.65
2022-12-18T20:38:59.309Z,15.02
2022-12-18T20:41:30.581Z,14.77
2022-12-18T20:44:04.897Z,17.92
2022-12-18T20:46:31.353Z,15.85
2022-12-18T20:48:58.089Z,16.25
2022-12-18T20:51:26.594Z,14.70
2022-12-18T20:53:54.908Z,14.77
2022-12-18T20:56:22.383Z,14.57
2022-12-18T20:58:54.958Z,16.48
2022-12-18T21:01:22.791Z,15.40
2022-12-18T21:03:49.869Z,15.63
2022-12-18T21:06:18.821Z,16.73
2022-12-18T21:08:45.483Z,14.32
2022-12-18T21:11:36.281Z,16.50
2022-12-18T21:14:05.105Z,15.35
2022-12-18T21:16:32.062Z,15.80
2022-12-18T21:18:58.767Z,15.82
2022-12-18T21:21:26.910Z,15.55
2022-12-18T21:23:53.994Z,15.90
2022-12-18T21:26:27.223Z,15.35
2022-12-18T21:28:55.803Z,15.15
2022-12-18T21:31:23.901Z,17.23
2022-12-18T21:33:50.599Z,15.60
2022-12-18T21:36:19.643Z,15.88
2022-12-18T21:38:46.165Z,16.33
2022-12-18T21:41:37.452Z,16.60
2022-12-18T21:44:10.610Z,17.33
2022-12-18T21:46:43.024Z,16.10
2022-12-18T21:49:10.754Z,17.38
2022-12-18T21:51:37.462Z,17.35
2022-12-18T21:54:04.379Z,18.40
2022-12-18T21:56:46.827Z,17.00
2022-12-18T21:59:19.225Z,17.75
2022-12-18T22:01:46.543Z,17.23
2022-12-18T22:04:14.034Z,18.02
2022-12-18T22:06:42.523Z,15.52
2022-12-18T22:09:10.704Z,18.95
2022-12-18T22:11:37.307Z,16.85
2022-12-18T22:14:04.071Z,17.33
2022-12-18T22:16:30.513Z,17.55
2022-12-18T22:18:56.881Z,17.33
2022-12-18T22:21:31.929Z,17.30
2022-12-18T22:24:02.566Z,17.85
2022-12-18T22:26:33.888Z,18.10
2022-12-18T22:29:24.254Z,19.00
2022-12-18T22:31:50.782Z,18.25
2022-12-18T22:34:21.919Z,17.80
2022-12-18T22:36:49.377Z,17.70
2022-12-18T22:39:21.892Z,18.48
2022-12-18T22:41:48.850Z,18.48
2022-12-18T22:44:17.533Z,17.77
2022-12-18T22:46:56.211Z,18.58
2022-12-18T22:49:33.893Z,17.23
2022-12-18T22:52:02.557Z,19.17
2022-12-18T22:54:28.960Z,18.80
2022-12-18T22:56:55.495Z,17.42
2022-12-18T22:59:23.255Z,18.00
2022-12-18T23:01:51.459Z,17.70
2022-12-18T23:04:28.384Z,17.05
2022-12-18T23:06:58.715Z,18.83
2022-12-18T23:09:25.115Z,17.73
2022-12-18T23:11:51.558Z,17.02
2022-12-18T23:14:17.936Z,17.75
2022-12-18T23:16:44.560Z,17.40
2022-12-18T23:19:13.053Z,17.52
2022-12-18T23:21:39.573Z,17.00
2022-12-18T23:24:06.315Z,19.13
2022-12-18T23:26:32.843Z,17.38
2022-12-18T23:29:01.571Z,17.33
2022-12-18T23:31:30.899Z,17.55
2022-12-18T23:33:59.001Z,17.80
2022-12-18T23:36:26.010Z,16.60
2022-12-18T23:38:54.742Z,17.15
2022-12-18T23:41:23.184Z,18.73
2022-12-18T23:43:49.906Z,18.30
2022-12-18T23:46:22.004Z,18.88
2022-12-18T23:48:49.681Z,17.65
2022-12-18T23:51:19.319Z,18.27
2022-12-18T23:53:46.144Z,18.30
2022-12-18T23:56:13.852Z,17.88
2022-12-18T23:58:41.270Z,17.67
